Fargo, Michigan
Current Conditions -  °F | °C
As of 11:17 AM on Thursday 18 Dec 2014 (Local Time) from KPHN Reporting Station
Overcast Overcast  
Wind Chill: 22°   Ceiling: 1500
Heat Index: 28°   Visibility: 10mi
Dew Point: 27°   Wind: 6mph
Humidity: 93%   Direction: 320°NW
Pressure: 30.2"   Gusts: NA
Location:  43.076°N, 82.6968°W
Report Text: KPHN 181617Z AUTO 32005KT 10SM OVC015 M02/M03 A3020 RMK AO2
Loading
Personal Weather Stations






























Interactive Weather Map New forecast layout! Learn more

10-Day Weather Forecast

Advertisements
Track Severe Weather on mobile